Terminal Aerodrome Forecast
Issued by NWS

Home | Current Version | Previous Version | Graphics & Text | Print | Product List | Glossary On
Versions: 1 2 3 4 5 6 7 8 9 10 11 12 13
251
FTUS43 KMPX 300520
TAFRWF
TAF
KRWF 300520Z 3006/0106 06006KT P6SM SCT250
     FM301400 07013G23KT P6SM BKN050 OVC120
     FM010100 04008KT P6SM BKN050 OVC120=

USA.gov is the U.S. government's official web portal to all federal, state and local government web resources and services.